Cardiff Trader — 9HA3356 — position and weather

sailwx.info

Track history (hours):
 
Tides and Currents Weather Stations Pressure Air Temp Water Temp Dewpoint Dewpoint Depression Visibility Wind Speed Wind Dir Waves Ship Positions

Cardiff Trader

Last reported at 2017-Nov-16 14:51 UTC. Time now 2017-Dec-12 06:17 UTC.
Position N 30°57' W 117°02'.
Warning: this ship's position is 25 days out of date.

Length 208 m; draft 8.2 m.

Type: Ship (hazmat cat A). MMSI: 229469000.

Date/timePositionNaut miles runAvg speedWind from/ knotsBaromVisibWave heightAir tempDewpointWater temp
2017-Nov-16 14:51N 30°57' W 117°02'515.1
2017-Nov-16 14:30N 31°02' W 117°04'1015.5
2017-Nov-16 13:51N 31°11' W 117°08'3015.7
2017-Nov-16 11:55N 31°40' W 117°18'615.5
2017-Nov-16 11:30N 31°46' W 117°20'815.5
2017-Nov-16 10:59N 31°54' W 117°23'815.6
2017-Nov-16 10:30N 32°01' W 117°26'815.4
2017-Nov-16 10:00N 32°08' W 117°29'815.4
2017-Nov-16 09:30N 32°16' W 117°32'715.0
2017-Nov-16 09:00N 32°23' W 117°35'714.9
2017-Nov-16 08:30N 32°30' W 117°37'815.2
2017-Nov-16 08:00N 32°37' W 117°40'815.4
2017-Nov-16 07:30N 32°44' W 117°44'815.6
2017-Nov-16 07:00N 32°50' W 117°49'815.6
2017-Nov-16 06:30N 32°57' W 117°53'815.7
2017-Nov-16 06:00N 33°04' W 117°57'815.7
2017-Nov-16 05:30N 33°11' W 118°01'815.1
2017-Nov-16 05:00N 33°18' W 118°06'611.7
2017-Nov-16 04:31N 33°24' W 118°08'612.1
2017-Nov-16 04:00N 33°29' W 118°11'712.3
2017-Nov-16 03:29N 33°35' W 118°13'611.7
2017-Nov-16 03:00N 33°41' W 118°15'5 0.3
2017-Nov-15 13:12N 33°46' W 118°15'0 0.0
2017-Nov-15 13:00N 33°46' W 118°15'0 0.0
2017-Nov-15 12:23N 33°46' W 118°15'0 0.0
2017-Nov-15 11:53N 33°46' W 118°15'2 0.1
2017-Nov-14 23:30N 33°44' W 118°17'4 7.6
2017-Nov-14 22:59N 33°41' W 118°14'4 9.3
2017-Nov-14 22:30N 33°37' W 118°11'610.9
2017-Nov-14 21:59N 33°32' W 118°08'511.0
2017-Nov-14 21:30N 33°27' W 118°06'611.1
2017-Nov-14 21:00N 33°22' W 118°04'611.3
2017-Nov-14 20:29N 33°17' W 118°00'511.0
2017-Nov-14 20:00N 33°12' W 117°58'611.3
2017-Nov-14 19:30N 33°07' W 117°55'611.4
2017-Nov-14 19:00N 33°01' W 117°53'611.5
2017-Nov-14 18:30N 32°56' W 117°50'4 8.4
2017-Nov-14 18:00N 32°52' W 117°48'815.3
2017-Nov-14 17:30N 32°45' W 117°44'815.5
2017-Nov-14 17:00N 32°38' W 117°41'816.3
2017-Nov-14 16:30N 32°31' W 117°38'816.9
2017-Nov-14 16:00N 32°23' W 117°35'3416.1
2017-Nov-14 13:54N 31°50' W 117°22'3516.2
2017-Nov-14 11:42N 31°17' W 117°09'7416.0
2017-Nov-14 07:07N 30°07' W 116°42'216.4
2017-Nov-14 07:00N 30°05' W 116°41'816.3
2017-Nov-14 06:30N 29°57' W 116°39'2816.0
2017-Nov-14 04:45N 29°31' W 116°28'416.4
2017-Nov-14 04:30N 29°27' W 116°26'917.3
2017-Nov-14 04:00N 29°19' W 116°23'2717.4
2017-Nov-14 02:26N 28°53' W 116°14'4117.0
2017-Nov-14 00:00N 28°14' W 115°58'1016.1
2017-Nov-13 23:25N 28°06' W 115°53'716.4
2017-Nov-13 23:00N 28°00' W 115°49'  
Track history (hours):
 
Tides and Currents Weather Stations Pressure Air Temp Water Temp Dewpoint Dewpoint Depression Visibility Wind Speed Wind Dir Waves Ship Positions

Cardiff Trader

Last reported at 2017-Nov-16 14:51 UTC. Time now 2017-Dec-12 06:17 UTC.
Position N 30°57' W 117°02'.
Warning: this ship's position is 25 days out of date.

Length 208 m; draft 8.2 m.

Type: Ship (hazmat cat A). MMSI: 229469000.

Date/timePositionNaut miles runAvg speedWind from/ knotsBaromVisibWave heightAir tempDewpointWater temp
2017-Nov-16 14:51N 30°57' W 117°02'515.1
2017-Nov-16 14:30N 31°02' W 117°04'1015.5
2017-Nov-16 13:51N 31°11' W 117°08'3015.7
2017-Nov-16 11:55N 31°40' W 117°18'615.5
2017-Nov-16 11:30N 31°46' W 117°20'815.5
2017-Nov-16 10:59N 31°54' W 117°23'815.6
2017-Nov-16 10:30N 32°01' W 117°26'815.4
2017-Nov-16 10:00N 32°08' W 117°29'815.4
2017-Nov-16 09:30N 32°16' W 117°32'715.0
2017-Nov-16 09:00N 32°23' W 117°35'714.9
2017-Nov-16 08:30N 32°30' W 117°37'815.2
2017-Nov-16 08:00N 32°37' W 117°40'815.4
2017-Nov-16 07:30N 32°44' W 117°44'815.6
2017-Nov-16 07:00N 32°50' W 117°49'815.6
2017-Nov-16 06:30N 32°57' W 117°53'815.7
2017-Nov-16 06:00N 33°04' W 117°57'815.7
2017-Nov-16 05:30N 33°11' W 118°01'815.1
2017-Nov-16 05:00N 33°18' W 118°06'611.7
2017-Nov-16 04:31N 33°24' W 118°08'612.1
2017-Nov-16 04:00N 33°29' W 118°11'712.3
2017-Nov-16 03:29N 33°35' W 118°13'611.7
2017-Nov-16 03:00N 33°41' W 118°15'5 0.3
2017-Nov-15 13:12N 33°46' W 118°15'0 0.0
2017-Nov-15 13:00N 33°46' W 118°15'0 0.0
2017-Nov-15 12:23N 33°46' W 118°15'0 0.0
2017-Nov-15 11:53N 33°46' W 118°15'2 0.1
2017-Nov-14 23:30N 33°44' W 118°17'4 7.6
2017-Nov-14 22:59N 33°41' W 118°14'4 9.3
2017-Nov-14 22:30N 33°37' W 118°11'610.9
2017-Nov-14 21:59N 33°32' W 118°08'511.0
2017-Nov-14 21:30N 33°27' W 118°06'611.1
2017-Nov-14 21:00N 33°22' W 118°04'611.3
2017-Nov-14 20:29N 33°17' W 118°00'511.0
2017-Nov-14 20:00N 33°12' W 117°58'611.3
2017-Nov-14 19:30N 33°07' W 117°55'611.4
2017-Nov-14 19:00N 33°01' W 117°53'611.5
2017-Nov-14 18:30N 32°56' W 117°50'4 8.4
2017-Nov-14 18:00N 32°52' W 117°48'815.3
2017-Nov-14 17:30N 32°45' W 117°44'815.5
2017-Nov-14 17:00N 32°38' W 117°41'816.3
2017-Nov-14 16:30N 32°31' W 117°38'816.9
2017-Nov-14 16:00N 32°23' W 117°35'3416.1
2017-Nov-14 13:54N 31°50' W 117°22'3516.2
2017-Nov-14 11:42N 31°17' W 117°09'7416.0
2017-Nov-14 07:07N 30°07' W 116°42'216.4
2017-Nov-14 07:00N 30°05' W 116°41'816.3
2017-Nov-14 06:30N 29°57' W 116°39'2816.0
2017-Nov-14 04:45N 29°31' W 116°28'416.4
2017-Nov-14 04:30N 29°27' W 116°26'917.3
2017-Nov-14 04:00N 29°19' W 116°23'2717.4
2017-Nov-14 02:26N 28°53' W 116°14'4117.0
2017-Nov-14 00:00N 28°14' W 115°58'1016.1
2017-Nov-13 23:25N 28°06' W 115°53'716.4
2017-Nov-13 23:00N 28°00' W 115°49'  

Dump ship's entire track history